postnord.no alexa rank chart, postnord.no alexa rank daily changes

postnord.no alexa rank chart, postnord.no alexa rank daily changes

postnord.no
Actual rank:
45 027

RANK HISTORY

Date Rank Diff
2018/08/18 45 027 -6 953
2018/08/17 51 980 -38 435
2018/08/16 90 415 +13 012
2018/08/15 77 403 -70 390
2018/08/14 147 793 -20 830
2018/08/13 168 623 +43 849
2018/08/12 124 774 +64 946
2018/08/11 59 828 +1 443
2018/08/10 58 385 -2 839
2018/08/09 61 224 +14 924
2018/08/08 46 300 -68 519
2018/08/07 114 819 -109 741
2018/08/06 224 560 +183 640
2018/08/05 40 920 -11 335
2018/08/04 52 255 +6 613
2018/08/03 45 642 -836
2018/08/02 46 478 -21 924
2018/08/01 68 402 -422 229
2018/07/31 490 631 +345 085
2018/07/30 145 546 +90 958
2018/07/29 54 588 +13 476
2018/07/28 41 112 -2 918
2018/07/27 44 030 -18 996
2018/07/26 63 026 +18 926
2018/07/25 44 100 -80 570
2018/07/24 124 670 -352 923
2018/07/23 477 593 +418 532
2018/07/22 59 061 -11 076
2018/07/21 70 137 +25 367
2018/07/20 44 770 -23 053
2018/07/19 67 823 +13 322
2018/07/18 54 501 -98 938
2018/07/17 153 439 +20 687
2018/07/16 132 752 +73 172
2018/07/15 59 580 +12 267
2018/07/14 47 313 -16 253
2018/07/13 63 566 +21 971
2018/07/12 41 595 +6 112
2018/07/11 35 483 -117 882
2018/07/10 153 365 +70 966
2018/07/09 82 399 +34 455
2018/07/08 47 944 +4 646
2018/07/07 43 298 -5 281
2018/07/06 48 579 -9 457
2018/07/05 58 036 +19 806
2018/07/04 38 230 -91 837
2018/07/03 130 067 +74 459
2018/07/02 55 608 +20 088
2018/07/01 35 520 -3 888
2018/06/30 39 408 +48
2018/06/29 39 360 -5 525
2018/06/28 44 885 -2 793
2018/06/27 47 678 -219 940
2018/06/26 267 618 +139 040
2018/06/25 128 578 +50 542
2018/06/24 78 036 -5 660
2018/06/23 83 696 +35 582
2018/06/22 48 114 -5 703
2018/06/21 53 817 -19 219
2018/06/20 73 036 -53 721
2018/06/19 126 757

WIDGET FOR YOUR SITE

DOMAINS WITH THE NEAREST RANK

Domain Rank
zasadil.net 45 022
motorguia.net 45 023
humankinetics.com 45 024
onlinebookclub.org 45 025
radioprofusion.com 45 026
postnord.no 45 027
interneturok.ru 45 028
blogthinkbig.com 45 029
sometraf.com 45 030
riptapparel.com 45 031
b2s-share.com 45 032

DOMAINS WITH THE NEAREST RANK BY TLD .no

Domain Rank
matprat.no 41 612
nordlys.no 42 114
lanekassen.no 42 365
norsk-tipping.no 43 530
platekompaniet.no 44 121
postnord.no 45 027
jobbnorge.no 45 901
180.no 46 312
lovdata.no 46 319
bibsys.no 46 664
freak.no 47 260